Time;durP1;ratioP1;P1;durP2;ratioP2;P2;SDS_P1;SDS_P2;PMS_P1;PMS_P2;Temp;Humidity;BMP_temperature;BMP_pressure;BME280_temperature;BME280_humidity;BME280_pressure;Samples;Min_cycle;Max_cycle;Signal;HPM_P1;HPM_P2
2023/01/07 01:14:15;;;;;;;0.93;0.52;;;21.30;49.90;;;;;;6785019;23;20053;-44
2023/01/07 01:20:50;;;;;;;0.70;0.47;;;21.40;49.90;;;;;;6971275;23;20037;-46
2023/01/07 01:27:24;;;;;;;0.73;0.32;;;21.50;49.80;;;;;;5996358;29;20027;-46
2023/01/07 01:30:26;;;;;;;0.50;0.30;;;21.50;50.40;;;;;;5996494;29;20037;-48
2023/01/07 01:33:29;;;;;;;0.50;0.30;;;21.40;50.30;;;;;;5996562;29;20069;-49
2023/01/07 01:54:27;;;;;;;0.40;0.30;;;21.30;49.50;;;;;;7012434;23;20037;-45
2023/01/07 01:57:34;;;;;;;0.40;0.30;;;21.30;50.30;;;;;;6211599;23;20053;-48
2023/01/07 02:00:37;;;;;;;0.30;0.28;;;21.30;50.10;;;;;;6064748;29;20054;-47
2023/01/07 02:03:40;;;;;;;0.20;0.20;;;21.30;50.10;;;;;;6064666;29;20034;-48
2023/01/07 02:10:15;;;;;;;0.47;0.30;;;21.50;50.10;;;;;;6814203;23;20433;-50
2023/01/07 02:13:31;;;;;;;0.43;0.30;;;21.50;50.00;;;;;;6060028;29;20100;-48
2023/01/07 02:16:39;;;;;;;0.28;0.20;;;21.40;49.90;;;;;;6059356;29;20049;-46
2023/01/07 02:20:04;;;;;;;0.82;0.55;;;21.60;50.00;;;;;;6063720;29;20115;-48
2023/01/07 02:23:33;;;;;;;0.43;0.32;;;21.60;49.90;;;;;;6061898;29;20060;-51
2023/01/07 02:26:59;;;;;;;0.50;0.40;;;21.50;49.90;;;;;;6045920;29;20067;-46
2023/01/07 02:30:27;;;;;;;0.47;0.30;;;21.60;49.80;;;;;;6063712;29;20120;-47
2023/01/07 02:33:41;;;;;;;0.65;0.20;;;21.50;49.80;;;;;;6051051;29;20037;-49
2023/01/07 02:36:49;;;;;;;0.43;0.30;;;21.40;49.70;;;;;;6063992;29;20048;-48
2023/01/07 02:39:58;;;;;;;0.70;0.47;;;21.20;49.50;;;;;;6050560;29;20074;-49
2023/01/07 02:43:09;;;;;;;0.65;0.40;;;21.20;50.20;;;;;;6067847;29;20047;-49
2023/01/07 02:46:18;;;;;;;0.57;0.30;;;21.40;49.60;;;;;;6068871;29;20080;-49
2023/01/07 02:49:21;;;;;;;0.43;0.35;;;21.40;49.60;;;;;;6065842;29;20502;-44
2023/01/07 02:52:25;;;;;;;0.50;0.30;;;21.50;49.80;;;;;;6062972;29;20045;-48
2023/01/07 02:55:36;;;;;;;0.90;0.50;;;21.60;49.70;;;;;;6043694;29;20056;-50
2023/01/07 02:58:54;;;;;;;0.65;0.40;;;21.40;49.50;;;;;;6061973;29;20037;-50
2023/01/07 03:02:13;;;;;;;1.08;0.50;;;21.50;49.50;;;;;;6069323;29;20041;-48
2023/01/07 03:05:29;;;;;;;0.57;0.30;;;21.50;49.50;;;;;;6068573;29;20048;-45
2023/01/07 03:08:42;;;;;;;0.50;0.38;;;21.10;49.20;;;;;;6069577;29;20043;-46
2023/01/07 03:11:52;;;;;;;0.75;0.40;;;21.40;49.30;;;;;;6057864;29;20111;-49
2023/01/07 03:14:59;;;;;;;0.52;0.45;;;21.50;49.40;;;;;;6072666;29;20045;-48
2023/01/07 03:18:05;;;;;;;0.63;0.45;;;21.60;49.50;;;;;;6069802;29;20470;-49
2023/01/07 03:21:11;;;;;;;1.05;0.40;;;21.40;49.30;;;;;;6051002;29;20056;-48
2023/01/07 03:24:15;;;;;;;0.68;0.50;;;21.40;49.30;;;;;;6067244;29;20056;-48
2023/01/07 03:27:19;;;;;;;0.80;0.50;;;21.40;49.30;;;;;;6066209;29;20052;-50
2023/01/07 03:30:23;;;;;;;0.88;0.50;;;21.50;49.40;;;;;;6049520;29;20045;-49
2023/01/07 03:33:34;;;;;;;0.73;0.30;;;21.40;49.20;;;;;;6066162;29;20129;-48
2023/01/07 03:36:41;;;;;;;0.45;0.40;;;21.50;49.30;;;;;;6050052;29;20053;-49
2023/01/07 03:39:44;;;;;;;0.55;0.30;;;21.50;49.30;;;;;;6065971;29;20532;-50
2023/01/07 03:42:47;;;;;;;0.70;0.40;;;21.50;49.20;;;;;;6066326;29;20413;-50
2023/01/07 03:45:56;;;;;;;1.77;0.50;;;21.10;49.10;;;;;;6049570;29;20037;-49
2023/01/07 03:48:59;;;;;;;0.40;0.40;;;21.50;49.20;;;;;;6065996;29;20093;-48
2023/01/07 03:52:02;;;;;;;0.40;0.30;;;21.50;49.30;;;;;;6065633;29;20450;-48
2023/01/07 03:55:04;;;;;;;0.63;0.38;;;21.50;49.20;;;;;;6048794;29;20049;-49
2023/01/07 03:58:06;;;;;;;1.58;0.43;;;21.50;49.20;;;;;;6049032;29;20041;-49
2023/01/07 04:01:08;;;;;;;0.45;0.30;;;21.40;49.20;;;;;;6065380;29;20153;-50
2023/01/07 04:04:10;;;;;;;0.45;0.40;;;21.40;49.10;;;;;;6065089;29;20492;-46
2023/01/07 04:07:13;;;;;;;0.60;0.30;;;21.60;49.20;;;;;;6064880;29;20048;-46
2023/01/07 04:10:14;;;;;;;0.70;0.50;;;21.30;49.00;;;;;;6065110;29;20125;-49
2023/01/07 04:13:16;;;;;;;0.77;0.30;;;21.30;49.10;;;;;;6065274;29;20051;-48
2023/01/07 04:16:20;;;;;;;0.88;0.40;;;21.40;49.10;;;;;;6064916;29;20052;-48
2023/01/07 04:19:23;;;;;;;0.40;0.30;;;21.10;48.90;;;;;;6064230;29;20045;-49
2023/01/07 04:22:25;;;;;;;0.60;0.30;;;21.50;48.90;;;;;;6048229;29;20045;-49
2023/01/07 04:25:27;;;;;;;0.50;0.40;;;21.40;49.10;;;;;;6064506;29;20041;-46
2023/01/07 04:28:30;;;;;;;0.43;0.30;;;21.50;49.10;;;;;;6064839;29;20045;-51
2023/01/07 04:31:32;;;;;;;0.80;0.50;;;21.40;49.10;;;;;;6064032;29;20059;-50
2023/01/07 04:34:34;;;;;;;0.40;0.30;;;21.40;49.00;;;;;;6064300;29;20505;-48
2023/01/07 04:37:37;;;;;;;1.05;0.50;;;21.10;48.90;;;;;;6064047;29;20052;-48
2023/01/07 04:40:39;;;;;;;1.23;0.40;;;21.40;49.60;;;;;;6063918;29;20033;-45
2023/01/07 04:43:41;;;;;;;;;;;21.50;49.00;;;;;;6064214;29;20483;-50
2023/01/07 04:46:42;;;;;;;0.40;0.30;;;21.40;49.30;;;;;;6064243;29;19924;-48
2023/01/07 04:49:44;;;;;;;;;;;21.10;48.90;;;;;;6047318;29;20521;-47
2023/01/07 04:52:46;;;;;;;0.73;0.40;;;21.40;49.30;;;;;;6063678;29;19924;-48
2023/01/07 04:55:48;;;;;;;0.43;0.30;;;21.50;49.20;;;;;;6064022;29;20121;-47
2023/01/07 04:58:50;;;;;;;0.80;0.30;;;21.50;49.10;;;;;;6063389;29;20043;-48
2023/01/07 05:01:53;;;;;;;0.28;0.25;;;21.30;49.00;;;;;;6063831;29;20044;-47
2023/01/07 05:04:56;;;;;;;0.32;0.30;;;21.30;48.90;;;;;;6064213;29;20060;-47
2023/01/07 05:07:58;;;;;;;0.43;0.30;;;21.40;49.00;;;;;;6063990;29;20049;-49
2023/01/07 05:11:04;;;;;;;0.57;0.28;;;21.30;48.90;;;;;;6064005;29;20037;-45
2023/01/07 05:14:07;;;;;;;0.40;0.30;;;21.30;48.90;;;;;;6063740;29;20037;-48
2023/01/07 05:17:08;;;;;;;;;;;21.40;48.90;;;;;;6064239;29;20057;-49
2023/01/07 05:20:13;;;;;;;0.30;0.30;;;21.20;49.20;;;;;;6063773;29;19924;-49
2023/01/07 05:23:15;;;;;;;0.55;0.30;;;21.30;48.90;;;;;;6063354;29;20497;-49
2023/01/07 05:26:18;;;;;;;0.50;0.32;;;21.50;49.10;;;;;;6063506;29;20073;-48
2023/01/07 05:29:19;;;;;;;;;;;21.30;48.90;;;;;;6064194;29;20037;-45
2023/01/07 05:32:22;;;;;;;0.40;0.40;;;21.30;49.30;;;;;;6063108;29;19924;-48
2023/01/07 05:35:25;;;;;;;0.43;0.30;;;21.40;49.10;;;;;;6062276;29;20048;-51
2023/01/07 05:38:27;;;;;;;0.40;0.40;;;21.20;49.00;;;;;;6062945;29;20049;-48
2023/01/07 05:41:28;;;;;;;0.40;0.32;;;21.40;49.10;;;;;;6062492;29;20068;-47
2023/01/07 05:44:30;;;;;;;0.55;0.50;;;21.10;48.90;;;;;;6062270;29;20069;-45
2023/01/07 05:47:31;;;;;;;0.70;0.30;;;21.20;49.00;;;;;;6063043;29;20045;-46
2023/01/07 05:50:33;;;;;;;0.40;0.30;;;21.20;49.00;;;;;;6062461;29;20490;-48
2023/01/07 05:53:35;;;;;;;;;;;21.10;48.90;;;;;;6062095;29;20041;-49
2023/01/07 05:56:36;;;;;;;0.47;0.40;;;21.20;49.20;;;;;;6062064;29;19923;-48
2023/01/07 05:59:38;;;;;;;0.52;0.30;;;21.30;49.00;;;;;;6062486;29;20053;-47
2023/01/07 06:02:39;;;;;;;;;;;21.20;48.90;;;;;;6063399;29;20060;-46
2023/01/07 06:05:41;;;;;;;0.30;0.30;;;21.20;49.20;;;;;;6063073;29;19992;-49
2023/01/07 06:08:43;;;;;;;0.40;0.40;;;21.20;49.00;;;;;;6062731;29;20041;-46
2023/01/07 06:11:44;;;;;;;0.47;0.30;;;21.30;49.00;;;;;;6062061;29;20041;-46
2023/01/07 06:14:45;;;;;;;0.77;0.52;;;21.40;49.20;;;;;;6061731;29;20041;-47
2023/01/07 06:17:47;;;;;;;;;;;21.20;49.00;;;;;;6063729;29;20045;-49
2023/01/07 06:20:50;;;;;;;0.60;0.40;;;21.50;49.50;;;;;;6064730;29;19924;-48
2023/01/07 06:23:52;;;;;;;0.60;0.45;;;21.40;49.20;;;;;;6047038;29;20037;-49
2023/01/07 06:26:53;;;;;;;0.40;0.38;;;21.20;49.10;;;;;;6045920;29;20064;-47
2023/01/07 06:29:55;;;;;;;0.50;0.40;;;21.30;49.20;;;;;;6062944;29;20037;-50
2023/01/07 06:32:56;;;;;;;;;;;21.30;49.20;;;;;;6063044;29;20041;-49
2023/01/07 06:35:57;;;;;;;0.43;0.30;;;21.30;49.40;;;;;;6061997;29;19934;-45
2023/01/07 06:38:59;;;;;;;0.40;0.30;;;21.30;49.20;;;;;;6063305;29;20041;-50
2023/01/07 06:42:01;;;;;;;0.47;0.40;;;21.20;49.80;;;;;;6061124;29;20045;-47
2023/01/07 06:45:02;;;;;;;0.57;0.50;;;21.30;49.20;;;;;;6061185;29;20052;-47
2023/01/07 06:48:04;;;;;;;0.30;0.30;;;21.20;49.10;;;;;;6061526;29;20045;-50
2023/01/07 06:51:06;;;;;;;0.63;0.40;;;21.20;49.10;;;;;;6060848;29;20056;-49
2023/01/07 06:54:08;;;;;;;;;;;21.30;49.10;;;;;;6061591;29;20524;-48
2023/01/07 06:57:09;;;;;;;;;;;21.00;49.30;;;;;;6061576;29;19924;-49
2023/01/07 07:00:11;;;;;;;0.38;0.30;;;21.30;49.50;;;;;;6060800;29;19931;-49
2023/01/07 07:03:13;;;;;;;0.70;0.30;;;21.20;49.20;;;;;;6060441;29;20049;-45
2023/01/07 07:06:14;;;;;;;1.15;0.50;;;21.30;49.20;;;;;;6059417;29;20052;-48
2023/01/07 07:09:16;;;;;;;0.77;0.35;;;21.20;49.10;;;;;;6060997;29;20045;-48
2023/01/07 07:12:18;;;;;;;0.40;0.40;;;21.40;49.20;;;;;;6061239;29;20052;-48
2023/01/07 07:15:19;;;;;;;0.50;0.50;;;21.20;49.10;;;;;;6061404;29;20117;-45
2023/01/07 07:18:21;;;;;;;0.50;0.40;;;21.30;49.10;;;;;;6044499;29;20053;-49
2023/01/07 07:21:22;;;;;;;0.40;0.32;;;21.20;49.10;;;;;;6061684;29;20070;-50
2023/01/07 07:24:24;;;;;;;0.60;0.57;;;20.80;48.90;;;;;;6060612;29;20037;-44
2023/01/07 07:27:26;;;;;;;0.60;0.50;;;21.20;49.10;;;;;;6060399;29;20045;-48
2023/01/07 07:30:27;;;;;;;0.40;0.20;;;21.10;49.10;;;;;;6060538;29;20397;-46
2023/01/07 07:33:49;;;;;;;0.65;0.45;;;21.30;49.20;;;;;;6046943;29;20041;-48
2023/01/07 07:36:50;;;;;;;0.40;0.35;;;21.30;49.10;;;;;;6061632;29;20070;-47
2023/01/07 07:39:52;;;;;;;0.32;0.30;;;21.30;49.20;;;;;;6060363;29;20041;-51
2023/01/07 07:42:54;;;;;;;0.40;0.40;;;21.30;49.20;;;;;;6060612;29;20045;-48
2023/01/07 07:46:13;;;;;;;0.70;0.40;;;21.30;49.20;;;;;;6060412;29;20065;-48
2023/01/07 07:49:15;;;;;;;0.50;0.50;;;21.30;49.10;;;;;;6061185;29;20051;-46
2023/01/07 07:52:16;;;;;;;;;;;21.30;49.20;;;;;;6060424;29;20045;-46
2023/01/07 07:55:18;;;;;;;0.52;0.50;;;21.40;49.50;;;;;;6064272;29;19934;-45
2023/01/07 07:58:27;;;;;;;0.73;0.38;;;21.30;49.30;;;;;;6064369;29;20057;-46
2023/01/07 08:01:28;;;;;;;0.50;0.32;;;21.20;49.30;;;;;;6064453;29;20473;-47
2023/01/07 08:04:33;;;;;;;0.60;0.40;;;21.30;49.40;;;;;;6063872;29;20514;-48
2023/01/07 08:07:34;;;;;;;0.40;0.32;;;21.10;49.20;;;;;;6046860;29;20399;-47
2023/01/07 08:10:39;;;;;;;0.55;0.55;;;21.30;49.40;;;;;;6064035;29;20045;-45
2023/01/07 08:13:40;;;;;;;0.70;0.40;;;21.20;49.40;;;;;;6064211;29;20041;-48
2023/01/07 08:16:42;;;;;;;;;;;21.20;49.50;;;;;;6064482;29;20097;-48
2023/01/07 08:19:43;;;;;;;0.38;0.30;;;20.90;49.60;;;;;;6063377;29;20435;-49
2023/01/07 08:22:45;;;;;;;0.63;0.50;;;21.10;49.60;;;;;;6063825;29;20048;-50
2023/01/07 08:25:47;;;;;;;0.57;0.52;;;21.00;49.50;;;;;;6064235;29;20037;-50
2023/01/07 08:28:48;;;;;;;0.45;0.30;;;21.20;49.80;;;;;;6063770;29;20044;-46
2023/01/07 08:31:50;;;;;;;0.50;0.47;;;21.00;49.70;;;;;;6064192;29;20045;-48
2023/01/07 08:34:53;;;;;;;0.32;0.32;;;21.20;49.70;;;;;;6064268;29;20097;-49
2023/01/07 08:38:00;;;;;;;0.50;0.43;;;21.20;49.80;;;;;;6064531;29;20041;-47
2023/01/07 08:41:02;;;;;;;0.50;0.40;;;21.10;49.80;;;;;;6063871;29;20482;-51
2023/01/07 08:44:04;;;;;;;0.65;0.50;;;21.30;50.00;;;;;;6063431;29;20073;-50
2023/01/07 08:47:05;;;;;;;0.43;0.40;;;21.20;50.00;;;;;;6063849;29;20041;-48
2023/01/07 08:50:07;;;;;;;0.63;0.40;;;21.00;49.80;;;;;;6063611;29;20052;-48
2023/01/07 08:53:09;;;;;;;0.30;0.30;;;21.20;49.90;;;;;;6063555;29;20045;-47
2023/01/07 08:56:11;;;;;;;;;;;21.30;50.10;;;;;;6064079;29;20115;-48
2023/01/07 08:59:12;;;;;;;;;;;21.30;50.40;;;;;;6063346;29;19924;-47
2023/01/07 09:02:15;;;;;;;0.45;0.35;;;21.30;50.40;;;;;;6063728;29;19931;-49
2023/01/07 09:05:17;;;;;;;0.50;0.40;;;21.20;50.10;;;;;;6045940;29;20086;-48
2023/01/07 09:08:18;;;;;;;0.50;0.40;;;21.10;50.20;;;;;;6064060;29;20065;-48
2023/01/07 09:11:20;;;;;;;;;;;21.30;50.50;;;;;;6062616;29;20430;-47
2023/01/07 09:14:21;;;;;;;;;;;21.00;50.60;;;;;;6061718;29;19924;-45
2023/01/07 09:17:23;;;;;;;0.40;0.40;;;21.20;50.80;;;;;;6063696;29;19923;-48
2023/01/07 09:20:25;;;;;;;0.40;0.40;;;21.10;50.40;;;;;;6063812;29;20560;-48
2023/01/07 09:23:26;;;;;;;;;;;20.80;50.40;;;;;;6064369;29;20041;-48
2023/01/07 09:26:28;;;;;;;0.43;0.32;;;20.50;50.60;;;;;;6063064;29;20393;-48
2023/01/07 09:29:30;;;;;;;0.63;0.45;;;20.70;50.50;;;;;;6061189;29;20081;-47
2023/01/07 09:32:32;;;;;;;0.40;0.40;;;21.20;50.80;;;;;;6063369;29;20473;-49
2023/01/07 09:35:33;;;;;;;0.30;0.30;;;21.10;50.90;;;;;;6064609;29;20041;-45
2023/01/07 09:38:35;;;;;;;0.30;0.30;;;21.20;51.00;;;;;;6062714;29;20393;-49
2023/01/07 09:41:48;;;;;;;0.55;0.50;;;21.10;51.10;;;;;;6066872;29;20048;-48
2023/01/07 09:45:03;;;;;;;0.65;0.40;;;21.40;51.30;;;;;;6065185;29;20033;-48
2023/01/07 09:48:11;;;;;;;0.30;0.30;;;21.20;51.30;;;;;;6048432;29;20132;-49
2023/01/07 09:51:18;;;;;;;0.63;0.38;;;21.10;51.80;;;;;;6064836;29;20052;-49
2023/01/07 09:54:27;;;;;;;0.63;0.38;;;21.20;51.50;;;;;;6049235;29;20052;-50
2023/01/07 09:57:29;;;;;;;0.35;0.30;;;21.20;51.40;;;;;;6066622;29;20056;-47
2023/01/07 10:00:33;;;;;;;0.40;0.20;;;21.20;51.50;;;;;;6066763;29;20104;-51
2023/01/07 10:03:48;;;;;;;0.30;0.30;;;21.20;51.40;;;;;;6051990;29;20489;-47
2023/01/07 10:06:58;;;;;;;0.40;0.40;;;20.90;51.40;;;;;;6067569;29;20127;-51
2023/01/07 10:10:12;;;;;;;0.32;0.30;;;21.20;51.60;;;;;;6065797;29;20045;-49
2023/01/07 10:13:41;;;;;;;0.30;0.20;;;21.30;51.80;;;;;;6049061;29;20045;-49
2023/01/07 10:16:48;;;;;;;0.30;0.30;;;21.20;51.70;;;;;;6063573;29;20053;-50
2023/01/07 10:19:57;;;;;;;0.20;0.20;;;21.20;51.70;;;;;;6065205;29;20518;-45
2023/01/07 10:23:03;;;;;;;0.85;0.40;;;20.80;51.50;;;;;;6066046;29;20041;-47
2023/01/07 10:26:12;;;;;;;0.68;0.52;;;21.20;51.80;;;;;;6065748;29;20051;-48
2023/01/07 10:29:19;;;;;;;0.50;0.50;;;21.20;51.90;;;;;;6048359;29;20052;-46
2023/01/07 10:32:23;;;;;;;0.70;0.40;;;21.20;51.90;;;;;;6047909;29;20044;-48
2023/01/07 10:35:29;;;;;;;0.60;0.47;;;21.20;52.00;;;;;;6048765;29;20045;-46
2023/01/07 10:38:36;;;;;;;0.30;0.30;;;21.30;52.10;;;;;;6052305;29;20052;-45
2023/01/07 10:41:45;;;;;;;0.30;0.30;;;21.10;52.00;;;;;;6053212;29;20081;-50
2023/01/07 10:45:08;;;;;;;0.40;0.40;;;21.10;52.00;;;;;;6068991;29;20394;-47
2023/01/07 10:48:30;;;;;;;0.63;0.45;;;21.10;52.00;;;;;;6069740;29;20386;-49
2023/01/07 10:51:58;;;;;;;0.60;0.20;;;21.10;51.90;;;;;;6054275;29;20434;-46
2023/01/07 10:55:12;;;;;;;0.65;0.30;;;21.30;52.10;;;;;;6066421;29;20048;-46
2023/01/07 10:58:13;;;;;;;0.43;0.40;;;20.70;52.50;;;;;;6067391;29;20049;-44
2023/01/07 11:01:23;;;;;;;0.47;0.35;;;21.20;52.20;;;;;;6070548;29;20056;-46
2023/01/07 11:04:25;;;;;;;0.57;0.40;;;21.00;52.00;;;;;;6055789;29;20104;-46
2023/01/07 11:07:31;;;;;;;0.30;0.30;;;21.20;52.20;;;;;;6071631;29;20041;-45
2023/01/07 11:10:36;;;;;;;0.60;0.30;;;21.20;52.30;;;;;;6055404;29;20045;-46
2023/01/07 11:13:40;;;;;;;1.52;0.45;;;21.30;52.40;;;;;;6040909;29;20053;-45
2023/01/07 11:16:49;;;;;;;0.75;0.45;;;21.20;52.30;;;;;;6071578;29;20516;-44
2023/01/07 11:19:51;;;;;;;0.55;0.40;;;21.20;52.40;;;;;;6055240;29;20045;-47
2023/01/07 11:22:52;;;;;;;1.17;0.45;;;21.10;52.50;;;;;;6071712;29;20073;-46
2023/01/07 11:25:54;;;;;;;0.43;0.30;;;21.10;52.50;;;;;;6071508;29;20045;-46
2023/01/07 11:28:59;;;;;;;0.60;0.30;;;21.20;52.60;;;;;;6073210;29;20093;-49
2023/01/07 11:32:02;;;;;;;0.38;0.30;;;21.30;52.60;;;;;;6059341;29;20045;-48
2023/01/07 11:35:07;;;;;;;0.47;0.30;;;21.30;52.70;;;;;;6075599;29;20049;-46
2023/01/07 11:38:26;;;;;;;0.63;0.38;;;20.90;52.60;;;;;;6075670;29;20053;-45
2023/01/07 11:41:27;;;;;;;0.50;0.40;;;20.70;52.60;;;;;;6059427;29;20044;-45
2023/01/07 11:44:29;;;;;;;0.50;0.30;;;21.30;52.90;;;;;;6058437;29;20383;-47
2023/01/07 11:47:31;;;;;;;;;;;21.30;53.00;;;;;;6074720;29;20053;-44
2023/01/07 11:50:33;;;;;;;;;;;21.00;53.00;;;;;;6075270;29;19923;-47
2023/01/07 11:53:36;;;;;;;0.50;0.30;;;21.20;53.10;;;;;;6074569;29;20304;-45
2023/01/07 11:56:38;;;;;;;1.15;0.60;;;21.30;52.80;;;;;;6075390;29;20056;-48
2023/01/07 11:59:39;;;;;;;0.57;0.43;;;21.20;53.00;;;;;;6075034;29;20049;-49
2023/01/07 12:02:41;;;;;;;0.70;0.40;;;21.00;52.90;;;;;;6074912;29;20045;-50
2023/01/07 12:05:43;;;;;;;0.43;0.35;;;21.30;53.10;;;;;;6074829;29;20045;-48
2023/01/07 12:08:59;;;;;;;0.50;0.40;;;21.10;53.10;;;;;;6073829;29;20104;-48
2023/01/07 12:12:30;;;;;;;0.40;0.30;;;21.30;53.30;;;;;;6058268;29;20045;-47
2023/01/07 12:15:34;;;;;;;0.60;0.30;;;21.20;53.20;;;;;;6061079;29;20406;-45
2023/01/07 12:18:50;;;;;;;0.75;0.40;;;21.10;53.20;;;;;;6058146;29;20557;-45
2023/01/07 12:22:05;;;;;;;0.63;0.40;;;21.10;53.40;;;;;;6073388;29;20052;-47
2023/01/07 12:25:26;;;;;;;0.85;0.40;;;21.30;53.60;;;;;;6058584;29;20048;-45
2023/01/07 12:28:42;;;;;;;0.40;0.30;;;21.30;53.70;;;;;;6057140;29;20064;-45
2023/01/07 12:31:58;;;;;;;0.85;0.32;;;21.30;53.80;;;;;;6073827;29;20411;-45
2023/01/07 12:35:02;;;;;;;0.38;0.30;;;21.10;53.90;;;;;;6073342;29;20498;-44
2023/01/07 12:38:21;;;;;;;0.55;0.30;;;21.30;54.00;;;;;;6073361;29;20108;-47
2023/01/07 12:41:26;;;;;;;0.77;0.40;;;21.20;54.10;;;;;;6071934;29;20041;-47
2023/01/07 12:44:28;;;;;;;0.43;0.32;;;21.20;54.10;;;;;;6073405;29;20056;-45
2023/01/07 12:47:35;;;;;;;0.40;0.28;;;21.30;54.30;;;;;;6073407;29;20049;-49
2023/01/07 12:50:41;;;;;;;0.65;0.30;;;21.30;54.40;;;;;;6055046;29;20044;-49
2023/01/07 12:53:49;;;;;;;0.22;0.20;;;21.20;54.40;;;;;;6071546;29;20037;-48
2023/01/07 12:56:55;;;;;;;0.57;0.38;;;21.20;54.40;;;;;;6071899;29;20041;-48
2023/01/07 13:00:03;;;;;;;0.43;0.30;;;21.30;54.50;;;;;;6056658;29;20045;-46
2023/01/07 13:03:16;;;;;;;0.40;0.30;;;21.30;54.70;;;;;;6072890;29;20048;-49
2023/01/07 13:06:24;;;;;;;0.55;0.30;;;21.20;54.70;;;;;;6072703;29;20191;-49
2023/01/07 13:09:30;;;;;;;0.75;0.20;;;21.10;54.70;;;;;;6055859;29;20049;-45
2023/01/07 13:12:44;;;;;;;0.30;0.20;;;21.40;55.00;;;;;;6072460;29;20048;-47
2023/01/07 13:15:47;;;;;;;0.50;0.40;;;21.30;55.00;;;;;;6072177;29;20055;-46
2023/01/07 13:18:49;;;;;;;0.30;0.17;;;21.10;55.00;;;;;;6071223;29;20049;-47
2023/01/07 13:21:51;;;;;;;;;;;21.30;55.30;;;;;;6072391;29;20041;-47
2023/01/07 13:25:11;;;;;;;0.30;0.25;;;21.30;55.50;;;;;;6071178;29;20343;-48
2023/01/07 13:28:32;;;;;;;0.65;0.30;;;21.30;55.20;;;;;;6071326;29;20393;-47
2023/01/07 13:31:58;;;;;;;0.50;0.30;;;21.30;55.40;;;;;;6070573;29;20049;-47
2023/01/07 13:35:18;;;;;;;0.28;0.20;;;21.00;55.30;;;;;;6070621;29;20410;-46
2023/01/07 13:38:37;;;;;;;0.20;0.20;;;21.40;55.70;;;;;;6070181;29;20064;-48
2023/01/07 13:41:51;;;;;;;0.55;0.50;;;21.40;55.70;;;;;;6070124;29;20490;-46
2023/01/07 13:45:01;;;;;;;0.57;0.40;;;21.30;55.70;;;;;;6070392;29;20537;-48
2023/01/07 13:48:04;;;;;;;0.50;0.30;;;21.30;55.70;;;;;;6070381;29;20045;-46
2023/01/07 13:51:08;;;;;;;0.40;0.32;;;21.30;55.70;;;;;;6069738;29;20041;-48
2023/01/07 13:54:10;;;;;;;0.75;0.60;;;21.20;55.80;;;;;;6071170;29;20048;-47
2023/01/07 13:57:38;;;;;;;0.50;0.30;;;21.30;55.90;;;;;;6052778;29;20104;-46
2023/01/07 14:00:43;;;;;;;0.32;0.32;;;21.50;56.00;;;;;;6057686;29;20070;-45
2023/01/07 14:03:48;;;;;;;0.52;0.30;;;21.40;55.80;;;;;;6053966;29;20045;-51
2023/01/07 14:06:50;;;;;;;0.57;0.38;;;21.40;55.80;;;;;;6053645;29;20049;-50
2023/01/07 14:09:55;;;;;;;0.52;0.30;;;21.10;55.70;;;;;;6069527;29;20041;-48
2023/01/07 14:13:10;;;;;;;0.40;0.40;;;21.30;55.80;;;;;;6069383;29;20049;-46
2023/01/07 14:16:17;;;;;;;0.40;0.30;;;21.40;55.80;;;;;;6052909;29;20520;-47
2023/01/07 14:19:29;;;;;;;0.40;0.30;;;21.50;55.70;;;;;;6069806;29;20037;-45
2023/01/07 14:22:40;;;;;;;0.50;0.30;;;21.10;55.40;;;;;;6052213;29;20052;-46
2023/01/07 14:25:54;;;;;;;0.30;0.30;;;21.30;55.40;;;;;;6069247;29;20045;-46
2023/01/07 14:29:24;;;;;;;0.40;0.40;;;21.30;55.40;;;;;;6069118;29;20060;-47
2023/01/07 14:32:31;;;;;;;0.20;0.20;;;21.50;55.30;;;;;;6054118;29;20041;-47
2023/01/07 14:35:35;;;;;;;0.50;0.30;;;21.40;55.00;;;;;;6068079;29;20052;-44
2023/01/07 14:38:56;;;;;;;0.70;0.30;;;21.50;54.80;;;;;;6051441;29;20053;-47
2023/01/07 14:42:23;;;;;;;0.30;0.20;;;21.50;54.30;;;;;;6067732;29;20073;-49
2023/01/07 14:45:53;;;;;;;0.40;0.20;;;21.20;53.90;;;;;;6066685;29;20045;-46
2023/01/07 14:49:21;;;;;;;0.13;0.13;;;21.40;53.60;;;;;;6053711;29;20049;-49
2023/01/07 14:52:53;;;;;;;0.40;0.30;;;21.50;53.70;;;;;;6068672;29;20041;-49
2023/01/07 14:56:12;;;;;;;0.57;0.30;;;21.40;53.30;;;;;;6042730;29;20524;-46
2023/01/07 14:59:32;;;;;;;0.60;0.30;;;21.40;53.20;;;;;;6068957;29;20448;-46
2023/01/07 15:03:06;;;;;;;0.47;0.30;;;21.40;53.10;;;;;;6068281;29;20391;-49
2023/01/07 15:06:18;;;;;;;0.30;0.30;;;21.40;53.00;;;;;;6072734;29;20052;-46
2023/01/07 15:16:01;;;;;;;0.75;0.30;;;21.50;52.80;;;;;;6058234;29;20049;-47
2023/01/07 15:19:03;;;;;;;0.68;0.30;;;21.30;52.70;;;;;;6071625;29;20045;-49
2023/01/07 15:22:12;;;;;;;;;;;21.40;52.70;;;;;;6073340;29;20048;-46
2023/01/07 15:25:36;;;;;;;0.55;0.38;;;21.50;52.90;;;;;;6072800;29;19931;-45
2023/01/07 15:28:46;;;;;;;0.47;0.20;;;21.40;52.70;;;;;;6057622;29;20045;-44
2023/01/07 15:31:53;;;;;;;0.82;0.30;;;21.40;52.70;;;;;;6072258;29;20108;-48
2023/01/07 15:34:55;;;;;;;0.40;0.28;;;21.50;52.80;;;;;;6071677;29;20410;-47
2023/01/07 15:38:01;;;;;;;0.60;0.40;;;21.40;52.80;;;;;;6072266;29;20077;-47
2023/01/07 15:41:03;;;;;;;0.30;0.20;;;21.40;52.70;;;;;;6071869;29;20052;-49
2023/01/07 15:44:12;;;;;;;0.32;0.20;;;21.40;52.80;;;;;;6071738;29;20040;-47
2023/01/07 15:47:31;;;;;;;0.32;0.30;;;21.30;52.70;;;;;;6057007;29;20493;-49
2023/01/07 15:50:33;;;;;;;0.50;0.30;;;21.40;52.60;;;;;;6072508;29;20386;-45
2023/01/07 15:53:35;;;;;;;0.88;0.30;;;21.50;52.70;;;;;;6072080;29;20477;-47
2023/01/07 15:56:38;;;;;;;1.10;0.43;;;21.40;52.50;;;;;;6072187;29;20084;-47
2023/01/07 15:59:43;;;;;;;1.75;0.60;;;21.40;52.40;;;;;;6072116;29;20045;-49
2023/01/07 16:02:45;;;;;;;0.73;0.35;;;21.40;52.30;;;;;;6071802;29;20049;-47
2023/01/07 16:05:47;;;;;;;0.98;0.47;;;21.40;52.30;;;;;;6071722;29;20041;-46
2023/01/07 16:08:50;;;;;;;0.82;0.40;;;21.40;52.20;;;;;;6071715;29;20387;-46
2023/01/07 16:11:52;;;;;;;0.75;0.32;;;21.30;51.90;;;;;;6071639;29;20069;-47
2023/01/07 16:14:53;;;;;;;0.90;0.50;;;21.40;51.90;;;;;;6071068;29;20049;-45
2023/01/07 16:17:55;;;;;;;;;;;21.30;51.70;;;;;;6071501;29;20482;-47
2023/01/07 16:20:59;;;;;;;0.47;0.22;;;21.20;51.80;;;;;;6071810;29;19949;-49
2023/01/07 16:24:01;;;;;;;0.40;0.30;;;21.40;51.70;;;;;;6071012;29;20144;-46
2023/01/07 16:27:04;;;;;;;0.68;0.40;;;21.40;51.70;;;;;;6070728;29;20041;-46
2023/01/07 16:30:14;;;;;;;0.82;0.30;;;21.30;51.50;;;;;;6070018;29;20041;-46
2023/01/07 16:33:18;;;;;;;0.43;0.30;;;21.30;51.40;;;;;;6071296;29;20045;-48
2023/01/07 16:36:22;;;;;;;0.50;0.30;;;21.40;51.50;;;;;;6070277;29;20077;-46
2023/01/07 16:39:28;;;;;;;0.68;0.35;;;21.40;51.40;;;;;;6054588;29;20528;-45
2023/01/07 16:42:30;;;;;;;1.25;0.45;;;21.40;51.30;;;;;;6070948;29;20443;-48
2023/01/07 16:45:34;;;;;;;0.75;0.32;;;21.30;51.30;;;;;;6071056;29;20056;-46
2023/01/07 16:48:35;;;;;;;0.50;0.40;;;21.30;51.10;;;;;;6039239;29;20049;-45
2023/01/07 16:51:37;;;;;;;;;;;21.20;51.00;;;;;;6071262;29;20045;-44
2023/01/07 16:54:41;;;;;;;0.68;0.40;;;21.30;51.10;;;;;;6070253;29;19923;-45
2023/01/07 16:57:44;;;;;;;1.10;0.40;;;20.80;50.80;;;;;;6054043;29;20069;-48
2023/01/07 17:00:48;;;;;;;1.00;0.40;;;21.50;51.00;;;;;;6070678;29;20116;-47
2023/01/07 17:03:54;;;;;;;0.65;0.30;;;21.30;50.70;;;;;;6070447;29;20065;-47
2023/01/07 17:06:59;;;;;;;0.90;0.38;;;21.40;50.60;;;;;;6070356;29;20069;-46
2023/01/07 17:10:01;;;;;;;0.90;0.52;;;21.20;50.50;;;;;;6070734;29;20100;-46
2023/01/07 17:13:05;;;;;;;1.65;0.50;;;21.20;50.40;;;;;;6070527;29;20044;-45
2023/01/07 17:16:20;;;;;;;0.65;0.25;;;21.30;50.50;;;;;;6054636;29;20053;-49
2023/01/07 17:19:23;;;;;;;0.45;0.30;;;21.20;50.30;;;;;;6053502;29;20053;-47
2023/01/07 17:22:28;;;;;;;0.80;0.40;;;21.20;50.30;;;;;;6053790;29;20045;-46
2023/01/07 17:25:30;;;;;;;0.65;0.40;;;21.20;50.30;;;;;;6038403;29;20550;-49
2023/01/07 17:28:36;;;;;;;1.38;0.50;;;21.10;50.30;;;;;;6069291;29;20045;-48
2023/01/07 17:31:38;;;;;;;0.85;0.30;;;21.30;50.30;;;;;;6053761;29;20115;-49
2023/01/07 17:34:40;;;;;;;1.20;0.47;;;21.30;50.30;;;;;;6070473;29;20051;-46
2023/01/07 17:37:41;;;;;;;0.63;0.32;;;21.20;50.10;;;;;;6070702;29;20075;-48
2023/01/07 17:40:44;;;;;;;1.55;0.70;;;21.20;50.20;;;;;;6069986;29;20117;-47
2023/01/07 17:43:46;;;;;;;0.93;0.50;;;21.00;49.90;;;;;;6069768;29;20104;-46
2023/01/07 17:46:47;;;;;;;0.85;0.40;;;21.20;50.10;;;;;;6069856;29;20073;-46
2023/01/07 17:49:49;;;;;;;;;;;20.80;49.70;;;;;;6038240;29;20049;-48
2023/01/07 17:52:53;;;;;;;0.65;0.35;;;21.10;50.20;;;;;;6069506;29;19926;-48
2023/01/07 17:55:55;;;;;;;0.98;0.35;;;21.00;49.90;;;;;;6069949;29;20045;-48
2023/01/07 17:58:57;;;;;;;1.13;0.82;;;21.20;49.80;;;;;;6070531;29;20052;-49
2023/01/07 18:01:59;;;;;;;0.45;0.22;;;21.20;49.80;;;;;;6052572;29;20501;-45
2023/01/07 18:05:01;;;;;;;1.00;0.40;;;21.20;49.70;;;;;;6069409;29;20588;-46